sensor_id;sensor_type;location;lat;lon;timestamp;P1;durP1;ratioP1;P2;durP2;ratioP2
43311;SDS011;30041;48.300;16.352;2023-07-02T00:01:52;6.30;;;2.65;;
43311;SDS011;30041;48.300;16.352;2023-07-02T00:04:17;5.03;;;2.60;;
43311;SDS011;30041;48.300;16.352;2023-07-02T00:06:43;4.72;;;2.70;;
43311;SDS011;30041;48.300;16.352;2023-07-02T00:09:09;3.28;;;2.45;;
43311;SDS011;30041;48.300;16.352;2023-07-02T00:11:37;3.35;;;2.65;;
43311;SDS011;30041;48.300;16.352;2023-07-02T00:14:03;3.45;;;2.13;;
43311;SDS011;30041;48.300;16.352;2023-07-02T00:16:29;3.08;;;2.35;;
43311;SDS011;30041;48.300;16.352;2023-07-02T00:18:54;3.40;;;2.40;;
43311;SDS011;30041;48.300;16.352;2023-07-02T00:21:20;3.13;;;2.38;;
43311;SDS011;30041;48.300;16.352;2023-07-02T00:23:45;3.40;;;2.53;;
43311;SDS011;30041;48.300;16.352;2023-07-02T00:26:12;3.58;;;2.28;;
43311;SDS011;30041;48.300;16.352;2023-07-02T00:28:37;3.47;;;2.50;;
43311;SDS011;30041;48.300;16.352;2023-07-02T00:31:03;3.50;;;2.50;;
43311;SDS011;30041;48.300;16.352;2023-07-02T00:33:29;4.55;;;2.63;;
43311;SDS011;30041;48.300;16.352;2023-07-02T00:35:56;2.97;;;2.28;;
43311;SDS011;30041;48.300;16.352;2023-07-02T00:38:21;3.10;;;2.42;;
43311;SDS011;30041;48.300;16.352;2023-07-02T00:40:47;4.20;;;2.75;;
43311;SDS011;30041;48.300;16.352;2023-07-02T00:43:12;3.60;;;2.47;;
43311;SDS011;30041;48.300;16.352;2023-07-02T00:45:38;3.72;;;2.70;;
43311;SDS011;30041;48.300;16.352;2023-07-02T00:48:04;4.10;;;2.58;;
43311;SDS011;30041;48.300;16.352;2023-07-02T00:50:33;4.55;;;2.80;;
43311;SDS011;30041;48.300;16.352;2023-07-02T00:52:58;3.08;;;2.50;;
43311;SDS011;30041;48.300;16.352;2023-07-02T00:55:24;3.65;;;2.70;;
43311;SDS011;30041;48.300;16.352;2023-07-02T00:57:50;4.63;;;2.50;;
43311;SDS011;30041;48.300;16.352;2023-07-02T01:00:15;3.70;;;2.70;;
43311;SDS011;30041;48.300;16.352;2023-07-02T01:02:41;3.35;;;2.53;;
43311;SDS011;30041;48.300;16.352;2023-07-02T01:05:07;4.18;;;2.60;;
43311;SDS011;30041;48.300;16.352;2023-07-02T01:07:33;3.97;;;2.72;;
43311;SDS011;30041;48.300;16.352;2023-07-02T01:09:58;4.00;;;2.75;;
43311;SDS011;30041;48.300;16.352;2023-07-02T01:12:25;3.50;;;2.58;;
43311;SDS011;30041;48.300;16.352;2023-07-02T01:14:53;3.33;;;2.67;;
43311;SDS011;30041;48.300;16.352;2023-07-02T01:17:23;3.78;;;2.47;;
43311;SDS011;30041;48.300;16.352;2023-07-02T01:19:55;3.80;;;2.70;;
43311;SDS011;30041;48.300;16.352;2023-07-02T01:22:23;4.50;;;2.65;;
43311;SDS011;30041;48.300;16.352;2023-07-02T01:24:51;5.00;;;2.60;;
43311;SDS011;30041;48.300;16.352;2023-07-02T01:27:17;4.00;;;2.83;;
43311;SDS011;30041;48.300;16.352;2023-07-02T01:29:43;3.35;;;2.40;;
43311;SDS011;30041;48.300;16.352;2023-07-02T01:32:09;4.47;;;2.88;;
43311;SDS011;30041;48.300;16.352;2023-07-02T01:34:34;3.47;;;2.78;;
43311;SDS011;30041;48.300;16.352;2023-07-02T01:37:01;3.10;;;2.53;;
43311;SDS011;30041;48.300;16.352;2023-07-02T01:39:27;3.38;;;2.45;;
43311;SDS011;30041;48.300;16.352;2023-07-02T01:41:53;4.95;;;2.40;;
43311;SDS011;30041;48.300;16.352;2023-07-02T01:44:20;3.65;;;2.30;;
43311;SDS011;30041;48.300;16.352;2023-07-02T01:46:46;3.67;;;2.60;;
43311;SDS011;30041;48.300;16.352;2023-07-02T01:49:12;5.03;;;2.63;;
43311;SDS011;30041;48.300;16.352;2023-07-02T01:51:38;3.53;;;2.45;;
43311;SDS011;30041;48.300;16.352;2023-07-02T01:54:03;3.28;;;2.20;;
43311;SDS011;30041;48.300;16.352;2023-07-02T01:56:29;2.92;;;2.33;;
43311;SDS011;30041;48.300;16.352;2023-07-02T01:58:54;3.13;;;2.30;;
43311;SDS011;30041;48.300;16.352;2023-07-02T02:01:20;3.90;;;2.42;;
43311;SDS011;30041;48.300;16.352;2023-07-02T02:03:46;2.75;;;2.17;;
43311;SDS011;30041;48.300;16.352;2023-07-02T02:06:11;2.90;;;2.20;;
43311;SDS011;30041;48.300;16.352;2023-07-02T02:08:37;3.28;;;2.30;;
43311;SDS011;30041;48.300;16.352;2023-07-02T02:11:03;2.90;;;2.05;;
43311;SDS011;30041;48.300;16.352;2023-07-02T02:13:28;2.92;;;2.40;;
43311;SDS011;30041;48.300;16.352;2023-07-02T02:15:54;2.47;;;1.90;;
43311;SDS011;30041;48.300;16.352;2023-07-02T02:18:19;3.30;;;2.28;;
43311;SDS011;30041;48.300;16.352;2023-07-02T02:20:45;3.10;;;2.20;;
43311;SDS011;30041;48.300;16.352;2023-07-02T02:23:10;2.80;;;2.10;;
43311;SDS011;30041;48.300;16.352;2023-07-02T02:25:36;3.88;;;2.25;;
43311;SDS011;30041;48.300;16.352;2023-07-02T02:28:01;3.15;;;2.17;;
43311;SDS011;30041;48.300;16.352;2023-07-02T02:30:27;3.00;;;2.22;;
43311;SDS011;30041;48.300;16.352;2023-07-02T02:32:53;2.45;;;1.77;;
43311;SDS011;30041;48.300;16.352;2023-07-02T02:35:18;3.00;;;2.35;;
43311;SDS011;30041;48.300;16.352;2023-07-02T02:37:44;2.72;;;1.90;;
43311;SDS011;30041;48.300;16.352;2023-07-02T02:40:10;3.28;;;2.42;;
43311;SDS011;30041;48.300;16.352;2023-07-02T02:42:36;3.00;;;2.22;;
43311;SDS011;30041;48.300;16.352;2023-07-02T02:45:01;4.38;;;2.30;;
43311;SDS011;30041;48.300;16.352;2023-07-02T02:47:28;3.28;;;2.17;;
43311;SDS011;30041;48.300;16.352;2023-07-02T02:49:53;2.47;;;1.98;;
43311;SDS011;30041;48.300;16.352;2023-07-02T02:52:19;2.95;;;2.30;;
43311;SDS011;30041;48.300;16.352;2023-07-02T02:54:45;2.97;;;2.25;;
43311;SDS011;30041;48.300;16.352;2023-07-02T02:57:11;3.00;;;2.30;;
43311;SDS011;30041;48.300;16.352;2023-07-02T02:59:36;3.10;;;2.13;;
43311;SDS011;30041;48.300;16.352;2023-07-02T03:02:02;2.72;;;2.17;;
43311;SDS011;30041;48.300;16.352;2023-07-02T03:04:28;3.47;;;2.20;;
43311;SDS011;30041;48.300;16.352;2023-07-02T03:06:53;3.00;;;2.00;;
43311;SDS011;30041;48.300;16.352;2023-07-02T03:09:19;3.28;;;2.40;;
43311;SDS011;30041;48.300;16.352;2023-07-02T03:11:45;3.10;;;2.15;;
43311;SDS011;30041;48.300;16.352;2023-07-02T03:14:11;3.08;;;2.25;;
43311;SDS011;30041;48.300;16.352;2023-07-02T03:16:37;2.10;;;1.80;;
43311;SDS011;30041;48.300;16.352;2023-07-02T03:19:02;3.25;;;2.20;;
43311;SDS011;30041;48.300;16.352;2023-07-02T03:21:28;3.13;;;2.20;;
43311;SDS011;30041;48.300;16.352;2023-07-02T03:23:54;2.42;;;1.88;;
43311;SDS011;30041;48.300;16.352;2023-07-02T03:26:19;2.60;;;2.00;;
43311;SDS011;30041;48.300;16.352;2023-07-02T03:28:47;2.67;;;2.08;;
43311;SDS011;30041;48.300;16.352;2023-07-02T03:31:13;2.60;;;2.10;;
43311;SDS011;30041;48.300;16.352;2023-07-02T03:33:39;3.13;;;1.90;;
43311;SDS011;30041;48.300;16.352;2023-07-02T03:36:04;3.38;;;2.05;;
43311;SDS011;30041;48.300;16.352;2023-07-02T03:38:30;2.72;;;2.10;;
43311;SDS011;30041;48.300;16.352;2023-07-02T03:40:55;2.67;;;2.03;;
43311;SDS011;30041;48.300;16.352;2023-07-02T03:43:21;2.83;;;2.20;;
43311;SDS011;30041;48.300;16.352;2023-07-02T03:45:46;2.45;;;2.10;;
43311;SDS011;30041;48.300;16.352;2023-07-02T03:48:12;2.70;;;2.10;;
43311;SDS011;30041;48.300;16.352;2023-07-02T03:50:37;2.22;;;1.63;;
43311;SDS011;30041;48.300;16.352;2023-07-02T03:53:03;3.28;;;2.05;;
43311;SDS011;30041;48.300;16.352;2023-07-02T03:55:28;2.40;;;1.70;;
43311;SDS011;30041;48.300;16.352;2023-07-02T03:57:54;2.40;;;1.80;;
43311;SDS011;30041;48.300;16.352;2023-07-02T04:00:20;2.90;;;1.90;;
43311;SDS011;30041;48.300;16.352;2023-07-02T04:02:45;2.50;;;1.98;;
43311;SDS011;30041;48.300;16.352;2023-07-02T04:05:11;2.65;;;1.83;;
43311;SDS011;30041;48.300;16.352;2023-07-02T04:07:37;2.38;;;1.88;;
43311;SDS011;30041;48.300;16.352;2023-07-02T04:10:02;2.70;;;1.80;;
43311;SDS011;30041;48.300;16.352;2023-07-02T04:12:28;2.10;;;1.70;;
43311;SDS011;30041;48.300;16.352;2023-07-02T04:14:54;2.85;;;1.95;;
43311;SDS011;30041;48.300;16.352;2023-07-02T04:17:19;2.40;;;1.88;;
43311;SDS011;30041;48.300;16.352;2023-07-02T04:19:45;2.60;;;2.00;;
43311;SDS011;30041;48.300;16.352;2023-07-02T04:22:10;2.80;;;1.92;;
43311;SDS011;30041;48.300;16.352;2023-07-02T04:24:36;2.45;;;1.95;;
43311;SDS011;30041;48.300;16.352;2023-07-02T04:27:01;2.25;;;1.80;;
43311;SDS011;30041;48.300;16.352;2023-07-02T04:29:27;2.80;;;2.00;;
43311;SDS011;30041;48.300;16.352;2023-07-02T04:31:52;2.50;;;1.80;;
43311;SDS011;30041;48.300;16.352;2023-07-02T04:34:18;2.38;;;1.90;;
43311;SDS011;30041;48.300;16.352;2023-07-02T04:36:43;3.35;;;2.15;;
43311;SDS011;30041;48.300;16.352;2023-07-02T04:39:09;2.47;;;1.80;;
43311;SDS011;30041;48.300;16.352;2023-07-02T04:41:34;2.70;;;1.85;;
43311;SDS011;30041;48.300;16.352;2023-07-02T04:44:00;2.55;;;1.80;;
43311;SDS011;30041;48.300;16.352;2023-07-02T04:46:26;2.40;;;1.80;;
43311;SDS011;30041;48.300;16.352;2023-07-02T04:48:51;2.72;;;2.05;;
43311;SDS011;30041;48.300;16.352;2023-07-02T04:51:16;2.80;;;1.85;;
43311;SDS011;30041;48.300;16.352;2023-07-02T04:53:42;3.08;;;1.90;;
43311;SDS011;30041;48.300;16.352;2023-07-02T04:56:07;2.78;;;1.85;;
43311;SDS011;30041;48.300;16.352;2023-07-02T04:58:33;2.05;;;1.52;;
43311;SDS011;30041;48.300;16.352;2023-07-02T05:00:58;2.60;;;1.60;;
43311;SDS011;30041;48.300;16.352;2023-07-02T05:03:24;2.60;;;1.90;;
43311;SDS011;30041;48.300;16.352;2023-07-02T05:05:51;2.38;;;1.80;;
43311;SDS011;30041;48.300;16.352;2023-07-02T05:08:16;2.33;;;1.63;;
43311;SDS011;30041;48.300;16.352;2023-07-02T05:10:42;2.95;;;1.80;;
43311;SDS011;30041;48.300;16.352;2023-07-02T05:13:07;4.38;;;2.40;;
43311;SDS011;30041;48.300;16.352;2023-07-02T05:15:33;6.22;;;2.85;;
43311;SDS011;30041;48.300;16.352;2023-07-02T05:17:58;6.88;;;2.65;;
43311;SDS011;30041;48.300;16.352;2023-07-02T05:20:24;6.10;;;2.72;;
43311;SDS011;30041;48.300;16.352;2023-07-02T05:22:49;3.45;;;2.50;;
43311;SDS011;30041;48.300;16.352;2023-07-02T05:25:15;3.00;;;2.10;;
43311;SDS011;30041;48.300;16.352;2023-07-02T05:27:41;5.20;;;2.67;;
43311;SDS011;30041;48.300;16.352;2023-07-02T05:30:06;3.75;;;2.42;;
43311;SDS011;30041;48.300;16.352;2023-07-02T05:32:33;3.88;;;2.47;;
43311;SDS011;30041;48.300;16.352;2023-07-02T05:34:59;3.42;;;2.50;;
43311;SDS011;30041;48.300;16.352;2023-07-02T05:37:25;3.25;;;2.30;;
43311;SDS011;30041;48.300;16.352;2023-07-02T05:39:50;3.75;;;2.28;;
43311;SDS011;30041;48.300;16.352;2023-07-02T05:42:16;3.40;;;2.45;;
43311;SDS011;30041;48.300;16.352;2023-07-02T05:44:41;3.13;;;2.30;;
43311;SDS011;30041;48.300;16.352;2023-07-02T05:47:07;4.35;;;2.50;;
43311;SDS011;30041;48.300;16.352;2023-07-02T05:49:32;4.07;;;2.40;;
43311;SDS011;30041;48.300;16.352;2023-07-02T05:51:58;2.75;;;2.08;;
43311;SDS011;30041;48.300;16.352;2023-07-02T05:54:23;4.13;;;2.47;;
43311;SDS011;30041;48.300;16.352;2023-07-02T05:56:49;2.85;;;2.15;;
43311;SDS011;30041;48.300;16.352;2023-07-02T05:59:14;2.53;;;2.03;;
43311;SDS011;30041;48.300;16.352;2023-07-02T06:01:40;3.20;;;2.30;;
43311;SDS011;30041;48.300;16.352;2023-07-02T06:04:06;3.72;;;2.28;;
43311;SDS011;30041;48.300;16.352;2023-07-02T06:06:31;4.30;;;2.20;;
43311;SDS011;30041;48.300;16.352;2023-07-02T06:08:57;2.83;;;2.05;;
43311;SDS011;30041;48.300;16.352;2023-07-02T06:11:22;4.10;;;2.00;;
43311;SDS011;30041;48.300;16.352;2023-07-02T06:13:48;4.28;;;2.10;;
43311;SDS011;30041;48.300;16.352;2023-07-02T06:16:13;3.55;;;1.90;;
43311;SDS011;30041;48.300;16.352;2023-07-02T06:18:39;2.97;;;1.77;;
43311;SDS011;30041;48.300;16.352;2023-07-02T06:21:05;4.53;;;2.08;;
43311;SDS011;30041;48.300;16.352;2023-07-02T06:23:39;2.53;;;1.88;;
43311;SDS011;30041;48.300;16.352;2023-07-02T06:26:08;2.63;;;1.83;;
43311;SDS011;30041;48.300;16.352;2023-07-02T06:28:33;3.05;;;2.10;;
43311;SDS011;30041;48.300;16.352;2023-07-02T06:30:59;2.72;;;1.85;;
43311;SDS011;30041;48.300;16.352;2023-07-02T06:33:24;2.55;;;1.83;;
43311;SDS011;30041;48.300;16.352;2023-07-02T06:35:50;3.42;;;2.10;;
43311;SDS011;30041;48.300;16.352;2023-07-02T06:38:15;2.58;;;1.65;;
43311;SDS011;30041;48.300;16.352;2023-07-02T06:40:41;2.58;;;1.80;;
43311;SDS011;30041;48.300;16.352;2023-07-02T06:43:07;3.03;;;2.00;;
43311;SDS011;30041;48.300;16.352;2023-07-02T06:45:32;2.42;;;1.70;;
43311;SDS011;30041;48.300;16.352;2023-07-02T06:47:58;3.38;;;1.92;;
43311;SDS011;30041;48.300;16.352;2023-07-02T06:50:23;3.45;;;2.17;;
43311;SDS011;30041;48.300;16.352;2023-07-02T06:52:49;2.65;;;1.77;;
43311;SDS011;30041;48.300;16.352;2023-07-02T06:55:14;2.67;;;1.80;;
43311;SDS011;30041;48.300;16.352;2023-07-02T06:57:43;3.22;;;2.00;;
43311;SDS011;30041;48.300;16.352;2023-07-02T07:00:10;3.55;;;1.75;;
43311;SDS011;30041;48.300;16.352;2023-07-02T07:02:36;2.42;;;1.85;;
43311;SDS011;30041;48.300;16.352;2023-07-02T07:05:02;4.38;;;2.00;;
43311;SDS011;30041;48.300;16.352;2023-07-02T07:07:27;4.68;;;2.08;;
43311;SDS011;30041;48.300;16.352;2023-07-02T07:09:53;4.30;;;2.30;;
43311;SDS011;30041;48.300;16.352;2023-07-02T07:12:19;4.78;;;2.60;;
43311;SDS011;30041;48.300;16.352;2023-07-02T07:14:44;4.25;;;2.35;;
43311;SDS011;30041;48.300;16.352;2023-07-02T07:17:10;10.05;;;2.60;;
43311;SDS011;30041;48.300;16.352;2023-07-02T07:19:35;7.63;;;2.97;;
43311;SDS011;30041;48.300;16.352;2023-07-02T07:22:01;5.82;;;2.53;;
43311;SDS011;30041;48.300;16.352;2023-07-02T07:24:26;8.15;;;2.40;;
43311;SDS011;30041;48.300;16.352;2023-07-02T07:26:52;3.17;;;2.08;;
43311;SDS011;30041;48.300;16.352;2023-07-02T07:29:17;3.38;;;2.20;;
43311;SDS011;30041;48.300;16.352;2023-07-02T07:31:43;2.85;;;2.05;;
43311;SDS011;30041;48.300;16.352;2023-07-02T07:34:08;9.52;;;2.40;;
43311;SDS011;30041;48.300;16.352;2023-07-02T07:36:34;4.40;;;2.45;;
43311;SDS011;30041;48.300;16.352;2023-07-02T07:38:59;6.65;;;1.88;;
43311;SDS011;30041;48.300;16.352;2023-07-02T07:41:25;5.63;;;2.53;;
43311;SDS011;30041;48.300;16.352;2023-07-02T07:43:51;5.25;;;2.10;;
43311;SDS011;30041;48.300;16.352;2023-07-02T07:46:16;2.92;;;1.88;;
43311;SDS011;30041;48.300;16.352;2023-07-02T07:48:42;6.60;;;1.98;;
43311;SDS011;30041;48.300;16.352;2023-07-02T07:51:07;2.75;;;1.83;;
43311;SDS011;30041;48.300;16.352;2023-07-02T07:53:33;4.85;;;2.15;;
43311;SDS011;30041;48.300;16.352;2023-07-02T07:56:02;6.13;;;2.45;;
43311;SDS011;30041;48.300;16.352;2023-07-02T07:58:28;5.65;;;2.13;;
43311;SDS011;30041;48.300;16.352;2023-07-02T08:00:53;4.90;;;2.15;;
43311;SDS011;30041;48.300;16.352;2023-07-02T08:03:19;2.97;;;2.03;;
43311;SDS011;30041;48.300;16.352;2023-07-02T08:05:44;3.55;;;2.22;;
43311;SDS011;30041;48.300;16.352;2023-07-02T08:08:10;2.40;;;1.80;;
43311;SDS011;30041;48.300;16.352;2023-07-02T08:10:35;4.07;;;2.05;;
43311;SDS011;30041;48.300;16.352;2023-07-02T08:13:01;4.40;;;2.25;;
43311;SDS011;30041;48.300;16.352;2023-07-02T08:15:26;3.45;;;2.05;;
43311;SDS011;30041;48.300;16.352;2023-07-02T08:17:52;3.78;;;2.35;;
43311;SDS011;30041;48.300;16.352;2023-07-02T08:20:17;3.85;;;2.58;;
43311;SDS011;30041;48.300;16.352;2023-07-02T08:22:43;7.30;;;2.50;;
43311;SDS011;30041;48.300;16.352;2023-07-02T08:25:09;6.78;;;2.90;;
43311;SDS011;30041;48.300;16.352;2023-07-02T08:27:34;4.97;;;2.38;;
43311;SDS011;30041;48.300;16.352;2023-07-02T08:30:00;5.85;;;2.50;;
43311;SDS011;30041;48.300;16.352;2023-07-02T08:32:25;3.30;;;2.22;;
43311;SDS011;30041;48.300;16.352;2023-07-02T08:34:51;2.95;;;2.40;;
43311;SDS011;30041;48.300;16.352;2023-07-02T08:37:17;4.10;;;2.10;;
43311;SDS011;30041;48.300;16.352;2023-07-02T08:39:43;10.23;;;2.35;;
43311;SDS011;30041;48.300;16.352;2023-07-02T08:42:08;3.53;;;2.13;;
43311;SDS011;30041;48.300;16.352;2023-07-02T08:44:34;2.65;;;2.20;;
43311;SDS011;30041;48.300;16.352;2023-07-02T08:47:00;2.63;;;1.98;;
43311;SDS011;30041;48.300;16.352;2023-07-02T08:49:26;7.53;;;2.28;;
43311;SDS011;30041;48.300;16.352;2023-07-02T08:51:52;6.05;;;2.40;;
43311;SDS011;30041;48.300;16.352;2023-07-02T08:54:17;4.47;;;2.17;;
43311;SDS011;30041;48.300;16.352;2023-07-02T08:56:44;4.68;;;2.40;;
43311;SDS011;30041;48.300;16.352;2023-07-02T08:59:10;3.28;;;2.20;;
43311;SDS011;30041;48.300;16.352;2023-07-02T09:01:50;2.90;;;2.15;;
43311;SDS011;30041;48.300;16.352;2023-07-02T09:06:47;5.70;;;2.22;;
43311;SDS011;30041;48.300;16.352;2023-07-02T09:09:13;4.30;;;2.10;;
43311;SDS011;30041;48.300;16.352;2023-07-02T09:11:48;5.20;;;2.33;;
43311;SDS011;30041;48.300;16.352;2023-07-02T09:14:23;5.78;;;2.22;;
43311;SDS011;30041;48.300;16.352;2023-07-02T09:16:50;3.72;;;2.05;;
43311;SDS011;30041;48.300;16.352;2023-07-02T09:19:30;3.72;;;2.28;;
43311;SDS011;30041;48.300;16.352;2023-07-02T09:21:57;3.38;;;2.15;;
43311;SDS011;30041;48.300;16.352;2023-07-02T09:24:23;5.13;;;2.30;;
43311;SDS011;30041;48.300;16.352;2023-07-02T09:26:50;3.75;;;2.00;;
43311;SDS011;30041;48.300;16.352;2023-07-02T09:29:19;4.20;;;1.98;;
43311;SDS011;30041;48.300;16.352;2023-07-02T09:31:47;4.82;;;2.25;;
43311;SDS011;30041;48.300;16.352;2023-07-02T09:34:14;4.72;;;2.00;;
43311;SDS011;30041;48.300;16.352;2023-07-02T09:36:40;3.78;;;2.08;;
43311;SDS011;30041;48.300;16.352;2023-07-02T09:39:06;3.25;;;2.10;;
43311;SDS011;30041;48.300;16.352;2023-07-02T09:41:52;2.97;;;2.10;;
43311;SDS011;30041;48.300;16.352;2023-07-02T09:44:20;3.28;;;1.90;;
43311;SDS011;30041;48.300;16.352;2023-07-02T09:46:48;3.60;;;2.05;;
43311;SDS011;30041;48.300;16.352;2023-07-02T09:49:35;8.98;;;1.95;;
43311;SDS011;30041;48.300;16.352;2023-07-02T09:52:07;3.08;;;2.20;;
43311;SDS011;30041;48.300;16.352;2023-07-02T09:54:34;2.90;;;1.95;;
43311;SDS011;30041;48.300;16.352;2023-07-02T09:57:00;2.70;;;1.95;;
43311;SDS011;30041;48.300;16.352;2023-07-02T09:59:26;2.45;;;1.90;;
43311;SDS011;30041;48.300;16.352;2023-07-02T10:01:52;3.20;;;2.00;;
43311;SDS011;30041;48.300;16.352;2023-07-02T10:04:19;2.85;;;2.00;;
43311;SDS011;30041;48.300;16.352;2023-07-02T10:06:46;3.05;;;2.03;;
43311;SDS011;30041;48.300;16.352;2023-07-02T10:09:34;4.32;;;2.10;;
43311;SDS011;30041;48.300;16.352;2023-07-02T10:12:22;3.13;;;1.90;;
43311;SDS011;30041;48.300;16.352;2023-07-02T10:14:50;2.67;;;2.10;;
43311;SDS011;30041;48.300;16.352;2023-07-02T10:17:23;3.08;;;1.85;;
43311;SDS011;30041;48.300;16.352;2023-07-02T10:19:59;3.15;;;2.00;;
43311;SDS011;30041;48.300;16.352;2023-07-02T10:22:25;2.72;;;1.98;;
43311;SDS011;30041;48.300;16.352;2023-07-02T10:24:57;2.60;;;1.83;;
43311;SDS011;30041;48.300;16.352;2023-07-02T10:27:37;4.82;;;2.00;;
43311;SDS011;30041;48.300;16.352;2023-07-02T10:30:06;2.97;;;2.03;;
43311;SDS011;30041;48.300;16.352;2023-07-02T10:32:34;2.72;;;1.98;;
43311;SDS011;30041;48.300;16.352;2023-07-02T10:35:01;2.30;;;1.77;;
43311;SDS011;30041;48.300;16.352;2023-07-02T10:37:34;3.17;;;2.17;;
43311;SDS011;30041;48.300;16.352;2023-07-02T10:40:02;3.80;;;2.00;;
43311;SDS011;30041;48.300;16.352;2023-07-02T10:42:31;2.42;;;1.90;;
43311;SDS011;30041;48.300;16.352;2023-07-02T10:44:57;2.63;;;1.92;;
43311;SDS011;30041;48.300;16.352;2023-07-02T10:47:22;3.90;;;1.92;;
43311;SDS011;30041;48.300;16.352;2023-07-02T10:49:48;2.50;;;2.10;;
43311;SDS011;30041;48.300;16.352;2023-07-02T10:52:13;2.78;;;1.88;;
43311;SDS011;30041;48.300;16.352;2023-07-02T10:54:43;2.58;;;2.00;;
43311;SDS011;30041;48.300;16.352;2023-07-02T10:57:10;3.40;;;2.00;;
43311;SDS011;30041;48.300;16.352;2023-07-02T10:59:38;2.70;;;2.00;;
43311;SDS011;30041;48.300;16.352;2023-07-02T11:02:04;3.20;;;2.10;;
43311;SDS011;30041;48.300;16.352;2023-07-02T11:04:30;2.20;;;1.70;;
43311;SDS011;30041;48.300;16.352;2023-07-02T11:06:56;1.85;;;1.45;;
43311;SDS011;30041;48.300;16.352;2023-07-02T11:09:22;3.88;;;1.98;;
43311;SDS011;30041;48.300;16.352;2023-07-02T11:11:51;3.20;;;2.03;;
43311;SDS011;30041;48.300;16.352;2023-07-02T11:14:34;4.97;;;1.70;;
43311;SDS011;30041;48.300;16.352;2023-07-02T11:17:04;2.83;;;1.83;;
43311;SDS011;30041;48.300;16.352;2023-07-02T11:19:31;2.88;;;1.98;;
43311;SDS011;30041;48.300;16.352;2023-07-02T11:21:59;3.47;;;2.10;;
43311;SDS011;30041;48.300;16.352;2023-07-02T11:24:29;4.53;;;2.03;;
43311;SDS011;30041;48.300;16.352;2023-07-02T11:26:55;3.28;;;2.17;;
43311;SDS011;30041;48.300;16.352;2023-07-02T11:29:21;2.92;;;2.10;;
43311;SDS011;30041;48.300;16.352;2023-07-02T11:31:47;2.72;;;1.88;;
43311;SDS011;30041;48.300;16.352;2023-07-02T11:34:13;3.05;;;1.88;;
43311;SDS011;30041;48.300;16.352;2023-07-02T11:36:39;2.55;;;1.95;;
43311;SDS011;30041;48.300;16.352;2023-07-02T11:39:05;3.42;;;1.90;;
43311;SDS011;30041;48.300;16.352;2023-07-02T11:41:37;3.80;;;2.08;;
43311;SDS011;30041;48.300;16.352;2023-07-02T11:44:03;2.75;;;1.90;;
43311;SDS011;30041;48.300;16.352;2023-07-02T11:46:29;2.85;;;2.13;;
43311;SDS011;30041;48.300;16.352;2023-07-02T11:48:55;7.55;;;2.00;;
43311;SDS011;30041;48.300;16.352;2023-07-02T11:51:20;3.75;;;1.95;;
43311;SDS011;30041;48.300;16.352;2023-07-02T11:53:46;3.92;;;2.20;;
43311;SDS011;30041;48.300;16.352;2023-07-02T11:56:12;3.35;;;2.17;;
43311;SDS011;30041;48.300;16.352;2023-07-02T11:58:37;4.50;;;1.98;;
43311;SDS011;30041;48.300;16.352;2023-07-02T12:01:03;5.13;;;2.15;;
43311;SDS011;30041;48.300;16.352;2023-07-02T12:03:28;3.03;;;1.73;;
43311;SDS011;30041;48.300;16.352;2023-07-02T12:05:54;4.57;;;2.10;;
43311;SDS011;30041;48.300;16.352;2023-07-02T12:08:19;2.97;;;1.70;;
43311;SDS011;30041;48.300;16.352;2023-07-02T12:10:45;2.83;;;1.95;;
43311;SDS011;30041;48.300;16.352;2023-07-02T12:13:10;2.47;;;1.67;;
43311;SDS011;30041;48.300;16.352;2023-07-02T12:15:36;2.47;;;1.70;;
43311;SDS011;30041;48.300;16.352;2023-07-02T12:18:02;2.30;;;1.60;;
43311;SDS011;30041;48.300;16.352;2023-07-02T12:20:27;2.35;;;1.80;;
43311;SDS011;30041;48.300;16.352;2023-07-02T12:22:53;2.03;;;1.50;;
43311;SDS011;30041;48.300;16.352;2023-07-02T12:25:18;2.55;;;1.80;;
43311;SDS011;30041;48.300;16.352;2023-07-02T12:27:44;5.68;;;1.75;;
43311;SDS011;30041;48.300;16.352;2023-07-02T12:30:09;5.68;;;2.30;;
43311;SDS011;30041;48.300;16.352;2023-07-02T12:32:37;4.70;;;2.10;;
43311;SDS011;30041;48.300;16.352;2023-07-02T12:35:03;3.10;;;1.80;;
43311;SDS011;30041;48.300;16.352;2023-07-02T12:37:31;2.58;;;2.13;;
43311;SDS011;30041;48.300;16.352;2023-07-02T12:40:00;4.80;;;2.30;;
43311;SDS011;30041;48.300;16.352;2023-07-02T12:42:26;4.95;;;2.15;;
43311;SDS011;30041;48.300;16.352;2023-07-02T12:44:51;2.80;;;1.63;;
43311;SDS011;30041;48.300;16.352;2023-07-02T12:47:17;3.88;;;2.03;;
43311;SDS011;30041;48.300;16.352;2023-07-02T12:49:42;2.95;;;1.77;;
43311;SDS011;30041;48.300;16.352;2023-07-02T12:52:08;3.03;;;1.85;;
43311;SDS011;30041;48.300;16.352;2023-07-02T12:54:34;2.03;;;1.63;;
43311;SDS011;30041;48.300;16.352;2023-07-02T12:56:59;2.88;;;1.88;;
43311;SDS011;30041;48.300;16.352;2023-07-02T12:59:25;2.70;;;2.25;;
43311;SDS011;30041;48.300;16.352;2023-07-02T13:01:51;2.88;;;1.95;;
43311;SDS011;30041;48.300;16.352;2023-07-02T13:04:16;3.13;;;1.75;;
43311;SDS011;30041;48.300;16.352;2023-07-02T13:06:42;2.92;;;1.60;;
43311;SDS011;30041;48.300;16.352;2023-07-02T13:09:07;2.42;;;1.85;;
43311;SDS011;30041;48.300;16.352;2023-07-02T13:11:33;2.42;;;1.77;;
43311;SDS011;30041;48.300;16.352;2023-07-02T13:13:58;4.68;;;1.73;;
43311;SDS011;30041;48.300;16.352;2023-07-02T13:16:24;2.60;;;1.90;;
43311;SDS011;30041;48.300;16.352;2023-07-02T13:18:50;2.53;;;1.80;;
43311;SDS011;30041;48.300;16.352;2023-07-02T13:21:15;2.30;;;1.67;;
43311;SDS011;30041;48.300;16.352;2023-07-02T13:23:41;2.53;;;1.70;;
43311;SDS011;30041;48.300;16.352;2023-07-02T13:26:06;2.38;;;1.70;;
43311;SDS011;30041;48.300;16.352;2023-07-02T13:28:32;2.65;;;1.90;;
43311;SDS011;30041;48.300;16.352;2023-07-02T13:30:57;2.95;;;1.80;;
43311;SDS011;30041;48.300;16.352;2023-07-02T13:33:23;2.63;;;1.50;;
43311;SDS011;30041;48.300;16.352;2023-07-02T13:35:48;2.53;;;1.70;;
43311;SDS011;30041;48.300;16.352;2023-07-02T13:38:14;4.65;;;1.90;;
43311;SDS011;30041;48.300;16.352;2023-07-02T13:40:40;2.78;;;1.75;;
43311;SDS011;30041;48.300;16.352;2023-07-02T13:43:05;2.55;;;1.75;;
43311;SDS011;30041;48.300;16.352;2023-07-02T13:45:31;3.58;;;1.60;;
43311;SDS011;30041;48.300;16.352;2023-07-02T13:47:56;2.13;;;1.60;;
43311;SDS011;30041;48.300;16.352;2023-07-02T13:50:22;2.35;;;1.55;;
43311;SDS011;30041;48.300;16.352;2023-07-02T13:52:48;3.55;;;1.70;;
43311;SDS011;30041;48.300;16.352;2023-07-02T13:55:14;3.53;;;1.70;;
43311;SDS011;30041;48.300;16.352;2023-07-02T13:57:39;2.85;;;1.85;;
43311;SDS011;30041;48.300;16.352;2023-07-02T14:00:05;2.35;;;1.40;;
43311;SDS011;30041;48.300;16.352;2023-07-02T14:02:31;2.00;;;1.52;;
43311;SDS011;30041;48.300;16.352;2023-07-02T14:04:57;2.53;;;1.60;;
43311;SDS011;30041;48.300;16.352;2023-07-02T14:07:23;1.88;;;1.33;;
43311;SDS011;30041;48.300;16.352;2023-07-02T14:09:49;2.17;;;1.60;;
43311;SDS011;30041;48.300;16.352;2023-07-02T14:12:15;2.33;;;1.42;;
43311;SDS011;30041;48.300;16.352;2023-07-02T14:14:41;2.38;;;1.63;;
43311;SDS011;30041;48.300;16.352;2023-07-02T14:17:06;2.70;;;1.50;;
43311;SDS011;30041;48.300;16.352;2023-07-02T14:19:32;4.13;;;1.75;;
43311;SDS011;30041;48.300;16.352;2023-07-02T14:21:58;2.67;;;1.52;;
43311;SDS011;30041;48.300;16.352;2023-07-02T14:24:24;3.47;;;1.70;;
43311;SDS011;30041;48.300;16.352;2023-07-02T14:26:49;3.47;;;1.70;;
43311;SDS011;30041;48.300;16.352;2023-07-02T14:29:15;2.08;;;1.55;;
43311;SDS011;30041;48.300;16.352;2023-07-02T14:31:40;2.40;;;1.60;;